sensor_id;sensor_type;location;lat;lon;timestamp;temperature;humidity
15609;DHT22;64278;45.642;13.756;2023-04-15T00:00:49;22.70;52.80
15609;DHT22;64278;45.642;13.756;2023-04-15T00:03:16;22.70;52.90
15609;DHT22;64278;45.642;13.756;2023-04-15T00:05:42;22.70;52.80
15609;DHT22;64278;45.642;13.756;2023-04-15T00:08:07;22.70;52.90
15609;DHT22;64278;45.642;13.756;2023-04-15T00:10:33;22.60;52.80
15609;DHT22;64278;45.642;13.756;2023-04-15T00:12:59;22.60;52.80
15609;DHT22;64278;45.642;13.756;2023-04-15T00:15:26;22.60;52.80
15609;DHT22;64278;45.642;13.756;2023-04-15T00:17:52;22.60;52.80
15609;DHT22;64278;45.642;13.756;2023-04-15T00:20:18;22.60;52.80
15609;DHT22;64278;45.642;13.756;2023-04-15T00:22:43;22.60;52.80
15609;DHT22;64278;45.642;13.756;2023-04-15T00:25:09;22.60;52.80
15609;DHT22;64278;45.642;13.756;2023-04-15T00:27:35;22.50;52.80
15609;DHT22;64278;45.642;13.756;2023-04-15T00:30:01;22.50;52.80
15609;DHT22;64278;45.642;13.756;2023-04-15T00:32:28;22.50;52.90
15609;DHT22;64278;45.642;13.756;2023-04-15T00:34:54;22.50;52.90
15609;DHT22;64278;45.642;13.756;2023-04-15T00:37:20;22.50;52.90
15609;DHT22;64278;45.642;13.756;2023-04-15T00:39:46;22.50;52.90
15609;DHT22;64278;45.642;13.756;2023-04-15T00:42:12;22.50;52.90
15609;DHT22;64278;45.642;13.756;2023-04-15T00:44:38;22.50;52.90
15609;DHT22;64278;45.642;13.756;2023-04-15T00:47:04;22.50;52.90
15609;DHT22;64278;45.642;13.756;2023-04-15T00:49:30;22.40;52.90
15609;DHT22;64278;45.642;13.756;2023-04-15T00:51:56;22.40;52.90
15609;DHT22;64278;45.642;13.756;2023-04-15T00:54:22;22.40;52.80
15609;DHT22;64278;45.642;13.756;2023-04-15T00:56:48;22.40;52.90
15609;DHT22;64278;45.642;13.756;2023-04-15T00:59:14;22.40;52.80
15609;DHT22;64278;45.642;13.756;2023-04-15T01:01:40;22.40;52.90
15609;DHT22;64278;45.642;13.756;2023-04-15T01:04:06;22.40;52.90
15609;DHT22;64278;45.642;13.756;2023-04-15T01:06:34;22.40;52.90
15609;DHT22;64278;45.642;13.756;2023-04-15T01:09:00;22.40;52.90
15609;DHT22;64278;45.642;13.756;2023-04-15T01:11:26;22.40;52.90
15609;DHT22;64278;45.642;13.756;2023-04-15T01:13:52;22.30;52.90
15609;DHT22;64278;45.642;13.756;2023-04-15T01:16:19;22.30;52.90
15609;DHT22;64278;45.642;13.756;2023-04-15T01:18:45;22.30;52.90
15609;DHT22;64278;45.642;13.756;2023-04-15T01:21:11;22.30;53.00
15609;DHT22;64278;45.642;13.756;2023-04-15T01:23:38;22.30;53.00
15609;DHT22;64278;45.642;13.756;2023-04-15T01:26:05;22.30;53.00
15609;DHT22;64278;45.642;13.756;2023-04-15T01:28:32;22.30;53.00
15609;DHT22;64278;45.642;13.756;2023-04-15T01:31:10;22.30;53.00
15609;DHT22;64278;45.642;13.756;2023-04-15T01:33:37;22.30;53.00
15609;DHT22;64278;45.642;13.756;2023-04-15T01:36:04;22.30;53.00
15609;DHT22;64278;45.642;13.756;2023-04-15T01:38:31;22.30;53.00
15609;DHT22;64278;45.642;13.756;2023-04-15T01:40:57;22.30;53.00
15609;DHT22;64278;45.642;13.756;2023-04-15T01:43:24;22.30;53.00
15609;DHT22;64278;45.642;13.756;2023-04-15T01:45:50;22.30;53.00
15609;DHT22;64278;45.642;13.756;2023-04-15T01:48:16;22.20;53.00
15609;DHT22;64278;45.642;13.756;2023-04-15T01:50:42;22.20;53.00
15609;DHT22;64278;45.642;13.756;2023-04-15T01:53:08;22.20;52.90
15609;DHT22;64278;45.642;13.756;2023-04-15T01:55:34;22.20;53.00
15609;DHT22;64278;45.642;13.756;2023-04-15T01:57:59;22.20;53.00
15609;DHT22;64278;45.642;13.756;2023-04-15T02:00:25;22.20;53.00
15609;DHT22;64278;45.642;13.756;2023-04-15T02:02:51;22.20;52.90
15609;DHT22;64278;45.642;13.756;2023-04-15T02:05:17;22.20;53.00
15609;DHT22;64278;45.642;13.756;2023-04-15T02:07:44;22.10;52.90
15609;DHT22;64278;45.642;13.756;2023-04-15T02:10:10;22.10;52.90
15609;DHT22;64278;45.642;13.756;2023-04-15T02:12:38;22.10;52.90
15609;DHT22;64278;45.642;13.756;2023-04-15T02:15:04;22.10;52.90
15609;DHT22;64278;45.642;13.756;2023-04-15T02:17:33;22.10;52.90
15609;DHT22;64278;45.642;13.756;2023-04-15T02:20:00;22.10;52.90
15609;DHT22;64278;45.642;13.756;2023-04-15T02:22:25;22.10;52.90
15609;DHT22;64278;45.642;13.756;2023-04-15T02:24:52;22.10;52.90
15609;DHT22;64278;45.642;13.756;2023-04-15T02:27:18;22.10;52.90
15609;DHT22;64278;45.642;13.756;2023-04-15T02:29:44;22.10;53.00
15609;DHT22;64278;45.642;13.756;2023-04-15T02:32:11;22.10;53.00
15609;DHT22;64278;45.642;13.756;2023-04-15T02:34:37;22.10;53.00
15609;DHT22;64278;45.642;13.756;2023-04-15T02:37:06;22.10;53.00
15609;DHT22;64278;45.642;13.756;2023-04-15T02:39:32;22.10;53.00
15609;DHT22;64278;45.642;13.756;2023-04-15T02:41:58;22.10;53.00
15609;DHT22;64278;45.642;13.756;2023-04-15T02:44:25;22.00;53.00
15609;DHT22;64278;45.642;13.756;2023-04-15T02:46:52;22.00;53.10
15609;DHT22;64278;45.642;13.756;2023-04-15T02:49:20;22.00;53.10
15609;DHT22;64278;45.642;13.756;2023-04-15T02:51:46;22.10;53.10
15609;DHT22;64278;45.642;13.756;2023-04-15T02:54:21;22.00;53.10
15609;DHT22;64278;45.642;13.756;2023-04-15T02:56:50;22.00;53.10
15609;DHT22;64278;45.642;13.756;2023-04-15T02:59:19;22.00;53.10
15609;DHT22;64278;45.642;13.756;2023-04-15T03:01:45;22.00;53.10
15609;DHT22;64278;45.642;13.756;2023-04-15T03:04:11;22.00;53.10
15609;DHT22;64278;45.642;13.756;2023-04-15T03:06:37;22.00;53.10
15609;DHT22;64278;45.642;13.756;2023-04-15T03:09:03;22.00;53.10
15609;DHT22;64278;45.642;13.756;2023-04-15T03:11:29;22.00;53.10
15609;DHT22;64278;45.642;13.756;2023-04-15T03:13:56;22.00;53.10
15609;DHT22;64278;45.642;13.756;2023-04-15T03:16:21;22.00;53.10
15609;DHT22;64278;45.642;13.756;2023-04-15T03:18:47;22.00;53.10
15609;DHT22;64278;45.642;13.756;2023-04-15T03:21:13;22.00;53.40
15609;DHT22;64278;45.642;13.756;2023-04-15T03:23:38;22.00;53.20
15609;DHT22;64278;45.642;13.756;2023-04-15T03:26:04;22.00;53.20
15609;DHT22;64278;45.642;13.756;2023-04-15T03:28:30;22.00;53.20
15609;DHT22;64278;45.642;13.756;2023-04-15T03:30:57;22.00;53.20
15609;DHT22;64278;45.642;13.756;2023-04-15T03:33:23;22.00;53.20
15609;DHT22;64278;45.642;13.756;2023-04-15T03:35:50;22.00;53.20
15609;DHT22;64278;45.642;13.756;2023-04-15T03:38:16;21.90;53.20
15609;DHT22;64278;45.642;13.756;2023-04-15T03:40:42;21.90;53.20
15609;DHT22;64278;45.642;13.756;2023-04-15T03:43:08;21.90;53.20
15609;DHT22;64278;45.642;13.756;2023-04-15T03:45:34;21.90;53.20
15609;DHT22;64278;45.642;13.756;2023-04-15T03:48:00;21.90;53.30
15609;DHT22;64278;45.642;13.756;2023-04-15T03:50:25;21.90;53.20
15609;DHT22;64278;45.642;13.756;2023-04-15T03:52:52;21.90;53.20
15609;DHT22;64278;45.642;13.756;2023-04-15T03:55:18;21.90;53.20
15609;DHT22;64278;45.642;13.756;2023-04-15T03:57:44;21.90;53.20
15609;DHT22;64278;45.642;13.756;2023-04-15T04:00:10;21.90;53.20
15609;DHT22;64278;45.642;13.756;2023-04-15T04:02:36;21.90;53.20
15609;DHT22;64278;45.642;13.756;2023-04-15T04:05:02;21.90;53.30
15609;DHT22;64278;45.642;13.756;2023-04-15T04:07:29;21.90;53.20
15609;DHT22;64278;45.642;13.756;2023-04-15T04:09:56;21.90;53.20
15609;DHT22;64278;45.642;13.756;2023-04-15T04:12:22;21.90;53.30
15609;DHT22;64278;45.642;13.756;2023-04-15T04:14:47;21.90;53.90
15609;DHT22;64278;45.642;13.756;2023-04-15T04:17:13;21.90;53.30
15609;DHT22;64278;45.642;13.756;2023-04-15T04:19:39;21.90;53.30
15609;DHT22;64278;45.642;13.756;2023-04-15T04:22:04;21.80;53.30
15609;DHT22;64278;45.642;13.756;2023-04-15T04:24:30;21.80;53.30
15609;DHT22;64278;45.642;13.756;2023-04-15T04:26:56;21.80;53.30
15609;DHT22;64278;45.642;13.756;2023-04-15T04:29:22;21.80;53.30
15609;DHT22;64278;45.642;13.756;2023-04-15T04:31:48;21.90;53.30
15609;DHT22;64278;45.642;13.756;2023-04-15T04:34:14;21.80;53.30
15609;DHT22;64278;45.642;13.756;2023-04-15T04:36:40;21.80;53.30
15609;DHT22;64278;45.642;13.756;2023-04-15T04:39:06;21.80;53.30
15609;DHT22;64278;45.642;13.756;2023-04-15T04:41:32;21.80;53.30
15609;DHT22;64278;45.642;13.756;2023-04-15T04:43:58;21.80;53.30
15609;DHT22;64278;45.642;13.756;2023-04-15T04:46:24;21.80;53.30
15609;DHT22;64278;45.642;13.756;2023-04-15T04:48:49;21.80;53.30
15609;DHT22;64278;45.642;13.756;2023-04-15T04:51:15;21.80;53.30
15609;DHT22;64278;45.642;13.756;2023-04-15T04:53:41;21.80;53.30
15609;DHT22;64278;45.642;13.756;2023-04-15T04:56:07;21.80;53.30
15609;DHT22;64278;45.642;13.756;2023-04-15T04:58:33;21.80;53.30
15609;DHT22;64278;45.642;13.756;2023-04-15T05:00:59;21.80;53.40
15609;DHT22;64278;45.642;13.756;2023-04-15T05:03:25;21.80;53.30
15609;DHT22;64278;45.642;13.756;2023-04-15T05:05:51;21.80;53.30
15609;DHT22;64278;45.642;13.756;2023-04-15T05:08:17;21.80;53.30
15609;DHT22;64278;45.642;13.756;2023-04-15T05:10:43;21.80;53.40
15609;DHT22;64278;45.642;13.756;2023-04-15T05:13:08;21.80;53.40
15609;DHT22;64278;45.642;13.756;2023-04-15T05:15:34;21.80;53.40
15609;DHT22;64278;45.642;13.756;2023-04-15T05:18:01;21.70;53.30
15609;DHT22;64278;45.642;13.756;2023-04-15T05:20:27;21.70;53.30
15609;DHT22;64278;45.642;13.756;2023-04-15T05:22:53;21.80;53.40
15609;DHT22;64278;45.642;13.756;2023-04-15T05:25:18;21.80;53.40
15609;DHT22;64278;45.642;13.756;2023-04-15T05:27:44;21.70;53.40
15609;DHT22;64278;45.642;13.756;2023-04-15T05:30:10;21.70;53.30
15609;DHT22;64278;45.642;13.756;2023-04-15T05:32:36;21.80;53.40
15609;DHT22;64278;45.642;13.756;2023-04-15T05:35:02;21.70;53.30
15609;DHT22;64278;45.642;13.756;2023-04-15T05:37:27;21.70;53.30
15609;DHT22;64278;45.642;13.756;2023-04-15T05:39:53;21.70;53.30
15609;DHT22;64278;45.642;13.756;2023-04-15T05:42:19;21.70;53.30
15609;DHT22;64278;45.642;13.756;2023-04-15T05:44:44;21.70;53.90
15609;DHT22;64278;45.642;13.756;2023-04-15T05:47:10;21.70;53.30
15609;DHT22;64278;45.642;13.756;2023-04-15T05:49:36;21.70;53.30
15609;DHT22;64278;45.642;13.756;2023-04-15T05:52:02;21.70;53.30
15609;DHT22;64278;45.642;13.756;2023-04-15T05:54:28;21.70;53.30
15609;DHT22;64278;45.642;13.756;2023-04-15T05:56:53;21.70;53.40
15609;DHT22;64278;45.642;13.756;2023-04-15T05:59:19;21.70;53.30
15609;DHT22;64278;45.642;13.756;2023-04-15T06:01:45;21.70;53.40
15609;DHT22;64278;45.642;13.756;2023-04-15T06:04:11;21.70;53.30
15609;DHT22;64278;45.642;13.756;2023-04-15T06:06:37;21.70;53.30
15609;DHT22;64278;45.642;13.756;2023-04-15T06:09:03;21.70;53.30
15609;DHT22;64278;45.642;13.756;2023-04-15T06:11:29;21.60;53.30
15609;DHT22;64278;45.642;13.756;2023-04-15T06:13:55;21.70;53.30
15609;DHT22;64278;45.642;13.756;2023-04-15T06:16:21;21.70;53.30
15609;DHT22;64278;45.642;13.756;2023-04-15T06:18:47;21.70;53.30
15609;DHT22;64278;45.642;13.756;2023-04-15T06:21:13;21.70;53.30
15609;DHT22;64278;45.642;13.756;2023-04-15T06:23:39;21.70;53.30
15609;DHT22;64278;45.642;13.756;2023-04-15T06:26:07;21.70;53.30
15609;DHT22;64278;45.642;13.756;2023-04-15T06:28:33;21.70;53.30
15609;DHT22;64278;45.642;13.756;2023-04-15T06:30:59;21.70;53.30
15609;DHT22;64278;45.642;13.756;2023-04-15T06:33:25;21.60;53.20
15609;DHT22;64278;45.642;13.756;2023-04-15T06:35:51;21.60;53.20
15609;DHT22;64278;45.642;13.756;2023-04-15T06:38:17;21.70;53.20
15609;DHT22;64278;45.642;13.756;2023-04-15T06:40:42;21.70;53.20
15609;DHT22;64278;45.642;13.756;2023-04-15T06:43:08;21.70;53.20
15609;DHT22;64278;45.642;13.756;2023-04-15T06:45:34;21.60;53.10
15609;DHT22;64278;45.642;13.756;2023-04-15T06:48:00;21.70;53.20
15609;DHT22;64278;45.642;13.756;2023-04-15T06:50:26;21.60;53.10
15609;DHT22;64278;45.642;13.756;2023-04-15T06:52:53;21.60;53.10
15609;DHT22;64278;45.642;13.756;2023-04-15T06:55:19;21.70;53.10
15609;DHT22;64278;45.642;13.756;2023-04-15T06:57:45;21.60;53.00
15609;DHT22;64278;45.642;13.756;2023-04-15T07:00:11;21.60;53.00
15609;DHT22;64278;45.642;13.756;2023-04-15T07:02:37;21.60;53.00
15609;DHT22;64278;45.642;13.756;2023-04-15T07:05:03;21.60;53.00
15609;DHT22;64278;45.642;13.756;2023-04-15T07:07:29;21.60;53.00
15609;DHT22;64278;45.642;13.756;2023-04-15T07:09:54;21.60;53.00
15609;DHT22;64278;45.642;13.756;2023-04-15T07:12:20;21.60;53.00
15609;DHT22;64278;45.642;13.756;2023-04-15T07:14:46;21.60;53.00
15609;DHT22;64278;45.642;13.756;2023-04-15T07:17:12;21.60;53.00
15609;DHT22;64278;45.642;13.756;2023-04-15T07:19:37;21.60;53.00
15609;DHT22;64278;45.642;13.756;2023-04-15T07:22:03;21.60;53.00
15609;DHT22;64278;45.642;13.756;2023-04-15T07:24:29;21.60;53.00
15609;DHT22;64278;45.642;13.756;2023-04-15T07:26:55;21.60;53.00
15609;DHT22;64278;45.642;13.756;2023-04-15T07:29:22;21.60;53.00
15609;DHT22;64278;45.642;13.756;2023-04-15T07:31:48;21.50;52.90
15609;DHT22;64278;45.642;13.756;2023-04-15T07:34:14;21.60;53.00
15609;DHT22;64278;45.642;13.756;2023-04-15T07:36:41;21.60;53.00
15609;DHT22;64278;45.642;13.756;2023-04-15T07:39:06;21.50;52.90
15609;DHT22;64278;45.642;13.756;2023-04-15T07:41:32;21.60;53.00
15609;DHT22;64278;45.642;13.756;2023-04-15T07:43:58;21.60;53.00
15609;DHT22;64278;45.642;13.756;2023-04-15T07:46:23;21.60;53.00
15609;DHT22;64278;45.642;13.756;2023-04-15T07:48:51;21.50;52.90
15609;DHT22;64278;45.642;13.756;2023-04-15T07:51:18;21.60;53.00
15609;DHT22;64278;45.642;13.756;2023-04-15T07:53:43;21.50;52.90
15609;DHT22;64278;45.642;13.756;2023-04-15T07:56:09;21.60;52.90
15609;DHT22;64278;45.642;13.756;2023-04-15T07:58:35;21.50;52.80
15609;DHT22;64278;45.642;13.756;2023-04-15T08:01:03;21.60;53.50
15609;DHT22;64278;45.642;13.756;2023-04-15T08:03:28;21.50;52.70
15609;DHT22;64278;45.642;13.756;2023-04-15T08:05:54;21.60;52.90
15609;DHT22;64278;45.642;13.756;2023-04-15T08:08:20;21.60;52.90
15609;DHT22;64278;45.642;13.756;2023-04-15T08:10:46;21.60;53.00
15609;DHT22;64278;45.642;13.756;2023-04-15T08:13:12;21.60;53.00
15609;DHT22;64278;45.642;13.756;2023-04-15T08:15:38;21.60;53.00
15609;DHT22;64278;45.642;13.756;2023-04-15T08:18:03;21.60;53.00
15609;DHT22;64278;45.642;13.756;2023-04-15T08:20:29;21.60;53.10
15609;DHT22;64278;45.642;13.756;2023-04-15T08:22:55;21.60;53.10
15609;DHT22;64278;45.642;13.756;2023-04-15T08:25:20;21.60;53.10
15609;DHT22;64278;45.642;13.756;2023-04-15T08:27:46;21.60;53.20
15609;DHT22;64278;45.642;13.756;2023-04-15T08:30:12;21.60;53.20
15609;DHT22;64278;45.642;13.756;2023-04-15T08:32:39;21.60;53.20
15609;DHT22;64278;45.642;13.756;2023-04-15T08:35:05;21.60;53.20
15609;DHT22;64278;45.642;13.756;2023-04-15T08:37:30;21.60;53.10
15609;DHT22;64278;45.642;13.756;2023-04-15T08:39:56;21.60;53.10
15609;DHT22;64278;45.642;13.756;2023-04-15T08:42:37;21.60;53.10
15609;DHT22;64278;45.642;13.756;2023-04-15T08:45:08;21.60;53.10
15609;DHT22;64278;45.642;13.756;2023-04-15T08:47:37;21.60;53.10
15609;DHT22;64278;45.642;13.756;2023-04-15T08:50:04;21.60;53.00
15609;DHT22;64278;45.642;13.756;2023-04-15T08:52:33;21.60;53.00
15609;DHT22;64278;45.642;13.756;2023-04-15T08:55:01;21.60;53.00
15609;DHT22;64278;45.642;13.756;2023-04-15T08:57:28;21.60;53.00
15609;DHT22;64278;45.642;13.756;2023-04-15T08:59:56;21.60;53.00
15609;DHT22;64278;45.642;13.756;2023-04-15T09:02:25;21.60;52.90
15609;DHT22;64278;45.642;13.756;2023-04-15T09:04:52;21.60;52.90
15609;DHT22;64278;45.642;13.756;2023-04-15T09:07:18;21.60;52.80
15609;DHT22;64278;45.642;13.756;2023-04-15T09:09:43;21.50;52.70
15609;DHT22;64278;45.642;13.756;2023-04-15T09:12:10;21.50;52.70
15609;DHT22;64278;45.642;13.756;2023-04-15T09:14:38;21.60;52.70
15609;DHT22;64278;45.642;13.756;2023-04-15T09:17:05;21.60;52.70
15609;DHT22;64278;45.642;13.756;2023-04-15T09:19:34;21.50;52.60
15609;DHT22;64278;45.642;13.756;2023-04-15T09:22:01;21.50;52.60
15609;DHT22;64278;45.642;13.756;2023-04-15T09:24:38;21.50;52.60
15609;DHT22;64278;45.642;13.756;2023-04-15T09:27:04;21.50;52.60
15609;DHT22;64278;45.642;13.756;2023-04-15T09:29:30;21.50;52.10
15609;DHT22;64278;45.642;13.756;2023-04-15T09:32:19;21.50;51.10
15609;DHT22;64278;45.642;13.756;2023-04-15T09:34:45;21.50;50.60
15609;DHT22;64278;45.642;13.756;2023-04-15T09:37:12;21.40;50.30
15609;DHT22;64278;45.642;13.756;2023-04-15T09:39:50;21.40;50.50
15609;DHT22;64278;45.642;13.756;2023-04-15T09:42:16;21.40;50.50
15609;DHT22;64278;45.642;13.756;2023-04-15T09:44:48;21.40;50.50
15609;DHT22;64278;45.642;13.756;2023-04-15T09:47:30;21.40;50.40
15609;DHT22;64278;45.642;13.756;2023-04-15T09:50:00;21.40;50.00
15609;DHT22;64278;45.642;13.756;2023-04-15T09:52:26;21.30;49.70
15609;DHT22;64278;45.642;13.756;2023-04-15T09:54:53;21.40;49.60
15609;DHT22;64278;45.642;13.756;2023-04-15T09:57:20;21.40;49.50
15609;DHT22;64278;45.642;13.756;2023-04-15T09:59:47;21.40;49.60
15609;DHT22;64278;45.642;13.756;2023-04-15T10:02:12;21.30;49.60
15609;DHT22;64278;45.642;13.756;2023-04-15T10:04:40;21.30;49.80
15609;DHT22;64278;45.642;13.756;2023-04-15T10:07:07;21.30;50.30
15609;DHT22;64278;45.642;13.756;2023-04-15T10:09:35;21.30;50.60
15609;DHT22;64278;45.642;13.756;2023-04-15T10:12:02;21.40;50.90
15609;DHT22;64278;45.642;13.756;2023-04-15T10:14:32;21.40;51.10
15609;DHT22;64278;45.642;13.756;2023-04-15T10:17:00;21.30;51.10
15609;DHT22;64278;45.642;13.756;2023-04-15T10:19:30;21.40;51.20
15609;DHT22;64278;45.642;13.756;2023-04-15T10:21:58;21.30;51.30
15609;DHT22;64278;45.642;13.756;2023-04-15T10:24:24;21.40;51.50
15609;DHT22;64278;45.642;13.756;2023-04-15T10:26:51;21.30;51.50
15609;DHT22;64278;45.642;13.756;2023-04-15T10:29:17;21.30;51.60
15609;DHT22;64278;45.642;13.756;2023-04-15T10:31:43;21.30;51.70
15609;DHT22;64278;45.642;13.756;2023-04-15T10:34:09;21.40;51.70
15609;DHT22;64278;45.642;13.756;2023-04-15T10:36:35;21.30;51.70
15609;DHT22;64278;45.642;13.756;2023-04-15T10:39:03;21.30;51.70
15609;DHT22;64278;45.642;13.756;2023-04-15T10:42:08;21.30;51.80
15609;DHT22;64278;45.642;13.756;2023-04-15T10:44:42;21.40;51.70
15609;DHT22;64278;45.642;13.756;2023-04-15T10:47:15;21.30;51.80
15609;DHT22;64278;45.642;13.756;2023-04-15T10:49:47;21.40;51.80
15609;DHT22;64278;45.642;13.756;2023-04-15T10:52:14;21.40;51.80
15609;DHT22;64278;45.642;13.756;2023-04-15T10:54:41;21.40;51.80
15609;DHT22;64278;45.642;13.756;2023-04-15T10:57:12;21.40;51.80
15609;DHT22;64278;45.642;13.756;2023-04-15T10:59:59;21.40;51.70
15609;DHT22;64278;45.642;13.756;2023-04-15T11:02:54;21.40;51.80
15609;DHT22;64278;45.642;13.756;2023-04-15T11:08:06;21.30;51.70
15609;DHT22;64278;45.642;13.756;2023-04-15T11:13:03;21.40;51.80
15609;DHT22;64278;45.642;13.756;2023-04-15T11:15:36;21.30;51.80
15609;DHT22;64278;45.642;13.756;2023-04-15T11:20:34;21.30;51.80
15609;DHT22;64278;45.642;13.756;2023-04-15T11:22:59;21.30;51.80
15609;DHT22;64278;45.642;13.756;2023-04-15T11:25:27;21.30;51.80
15609;DHT22;64278;45.642;13.756;2023-04-15T11:27:54;21.30;51.90
15609;DHT22;64278;45.642;13.756;2023-04-15T11:30:25;21.30;51.90
15609;DHT22;64278;45.642;13.756;2023-04-15T11:32:53;21.30;51.90
15609;DHT22;64278;45.642;13.756;2023-04-15T11:35:19;21.30;52.50
15609;DHT22;64278;45.642;13.756;2023-04-15T11:37:47;21.30;51.90
15609;DHT22;64278;45.642;13.756;2023-04-15T11:40:14;21.30;51.90
15609;DHT22;64278;45.642;13.756;2023-04-15T11:42:45;21.30;52.00
15609;DHT22;64278;45.642;13.756;2023-04-15T11:45:13;21.30;51.90
15609;DHT22;64278;45.642;13.756;2023-04-15T11:47:40;21.30;52.00
15609;DHT22;64278;45.642;13.756;2023-04-15T11:52:52;21.30;52.00
15609;DHT22;64278;45.642;13.756;2023-04-15T11:55:18;21.30;51.90
15609;DHT22;64278;45.642;13.756;2023-04-15T11:57:43;21.30;51.90
15609;DHT22;64278;45.642;13.756;2023-04-15T12:00:09;21.30;51.70
15609;DHT22;64278;45.642;13.756;2023-04-15T12:02:36;21.20;51.60
15609;DHT22;64278;45.642;13.756;2023-04-15T12:05:05;21.20;51.50
15609;DHT22;64278;45.642;13.756;2023-04-15T12:07:31;21.20;51.60
15609;DHT22;64278;45.642;13.756;2023-04-15T12:09:57;21.20;51.60
15609;DHT22;64278;45.642;13.756;2023-04-15T12:12:27;21.20;51.50
15609;DHT22;64278;45.642;13.756;2023-04-15T12:14:53;21.20;51.40
15609;DHT22;64278;45.642;13.756;2023-04-15T12:17:22;21.20;51.30
15609;DHT22;64278;45.642;13.756;2023-04-15T12:19:54;21.20;51.40
15609;DHT22;64278;45.642;13.756;2023-04-15T12:22:20;21.20;51.50
15609;DHT22;64278;45.642;13.756;2023-04-15T12:24:46;21.20;51.60
15609;DHT22;64278;45.642;13.756;2023-04-15T12:27:14;21.20;51.80
15609;DHT22;64278;45.642;13.756;2023-04-15T12:29:41;21.20;51.90
15609;DHT22;64278;45.642;13.756;2023-04-15T12:32:15;21.20;52.00
15609;DHT22;64278;45.642;13.756;2023-04-15T12:34:51;21.20;52.30
15609;DHT22;64278;45.642;13.756;2023-04-15T12:37:17;21.20;52.50
15609;DHT22;64278;45.642;13.756;2023-04-15T12:39:48;21.20;52.60
15609;DHT22;64278;45.642;13.756;2023-04-15T12:42:14;21.20;52.60
15609;DHT22;64278;45.642;13.756;2023-04-15T12:44:40;21.20;52.60
15609;DHT22;64278;45.642;13.756;2023-04-15T12:47:08;21.20;52.60
15609;DHT22;64278;45.642;13.756;2023-04-15T12:49:34;21.20;52.50
15609;DHT22;64278;45.642;13.756;2023-04-15T12:52:01;21.20;52.40
15609;DHT22;64278;45.642;13.756;2023-04-15T12:54:28;21.20;52.50
15609;DHT22;64278;45.642;13.756;2023-04-15T12:56:54;21.20;52.40
15609;DHT22;64278;45.642;13.756;2023-04-15T12:59:20;21.20;52.40
15609;DHT22;64278;45.642;13.756;2023-04-15T13:01:47;21.20;52.40
15609;DHT22;64278;45.642;13.756;2023-04-15T13:04:13;21.20;52.30
15609;DHT22;64278;45.642;13.756;2023-04-15T13:06:39;21.20;52.40
15609;DHT22;64278;45.642;13.756;2023-04-15T13:09:04;21.20;52.50
15609;DHT22;64278;45.642;13.756;2023-04-15T13:11:31;21.20;52.50
15609;DHT22;64278;45.642;13.756;2023-04-15T13:14:00;21.20;52.20
15609;DHT22;64278;45.642;13.756;2023-04-15T13:16:26;21.20;52.10
15609;DHT22;64278;45.642;13.756;2023-04-15T13:18:52;21.20;51.90
15609;DHT22;64278;45.642;13.756;2023-04-15T13:21:18;21.10;51.70
15609;DHT22;64278;45.642;13.756;2023-04-15T13:23:44;21.10;51.70
15609;DHT22;64278;45.642;13.756;2023-04-15T13:26:10;21.10;51.60
15609;DHT22;64278;45.642;13.756;2023-04-15T13:28:35;21.10;51.50
15609;DHT22;64278;45.642;13.756;2023-04-15T13:31:01;21.10;51.60
15609;DHT22;64278;45.642;13.756;2023-04-15T13:33:27;21.10;51.60
15609;DHT22;64278;45.642;13.756;2023-04-15T13:35:53;21.10;51.60
15609;DHT22;64278;45.642;13.756;2023-04-15T13:38:18;21.10;51.40
15609;DHT22;64278;45.642;13.756;2023-04-15T13:40:44;21.10;51.30
15609;DHT22;64278;45.642;13.756;2023-04-15T13:43:10;21.10;51.30
15609;DHT22;64278;45.642;13.756;2023-04-15T13:45:36;21.10;51.40
15609;DHT22;64278;45.642;13.756;2023-04-15T13:48:03;21.10;51.40
15609;DHT22;64278;45.642;13.756;2023-04-15T13:50:28;21.10;51.40
15609;DHT22;64278;45.642;13.756;2023-04-15T13:52:54;21.10;51.40
15609;DHT22;64278;45.642;13.756;2023-04-15T13:55:20;21.10;51.40
15609;DHT22;64278;45.642;13.756;2023-04-15T13:57:46;21.10;51.40
15609;DHT22;64278;45.642;13.756;2023-04-15T14:00:12;21.10;51.40
15609;DHT22;64278;45.642;13.756;2023-04-15T14:02:39;21.10;51.50
15609;DHT22;64278;45.642;13.756;2023-04-15T14:05:05;21.10;51.60
15609;DHT22;64278;45.642;13.756;2023-04-15T14:07:30;21.10;51.60
15609;DHT22;64278;45.642;13.756;2023-04-15T14:09:56;21.10;51.60
15609;DHT22;64278;45.642;13.756;2023-04-15T14:12:22;21.10;51.60
15609;DHT22;64278;45.642;13.756;2023-04-15T14:14:48;21.10;51.60
15609;DHT22;64278;45.642;13.756;2023-04-15T14:17:13;21.10;51.60
15609;DHT22;64278;45.642;13.756;2023-04-15T14:19:39;21.10;51.70
15609;DHT22;64278;45.642;13.756;2023-04-15T14:22:05;21.10;51.70
15609;DHT22;64278;45.642;13.756;2023-04-15T14:24:30;21.10;51.70
15609;DHT22;64278;45.642;13.756;2023-04-15T14:26:57;21.10;51.70
15609;DHT22;64278;45.642;13.756;2023-04-15T14:29:23;21.10;51.70
15609;DHT22;64278;45.642;13.756;2023-04-15T14:31:48;21.10;51.80
15609;DHT22;64278;45.642;13.756;2023-04-15T14:34:17;21.10;51.80
15609;DHT22;64278;45.642;13.756;2023-04-15T14:36:43;21.10;51.90
15609;DHT22;64278;45.642;13.756;2023-04-15T14:39:09;21.10;51.90
15609;DHT22;64278;45.642;13.756;2023-04-15T14:41:35;21.10;52.10
15609;DHT22;64278;45.642;13.756;2023-04-15T14:44:02;21.10;51.90
15609;DHT22;64278;45.642;13.756;2023-04-15T14:46:27;21.10;52.00
15609;DHT22;64278;45.642;13.756;2023-04-15T14:48:53;21.10;52.00
15609;DHT22;64278;45.642;13.756;2023-04-15T14:51:19;21.10;52.00
15609;DHT22;64278;45.642;13.756;2023-04-15T14:53:45;21.10;52.00
15609;DHT22;64278;45.642;13.756;2023-04-15T14:56:10;21.10;52.00
15609;DHT22;64278;45.642;13.756;2023-04-15T14:58:36;21.10;52.00
15609;DHT22;64278;45.642;13.756;2023-04-15T15:01:05;21.10;52.10
15609;DHT22;64278;45.642;13.756;2023-04-15T15:03:31;21.10;52.10
15609;DHT22;64278;45.642;13.756;2023-04-15T15:05:57;21.10;52.10
15609;DHT22;64278;45.642;13.756;2023-04-15T15:08:23;21.10;52.10
15609;DHT22;64278;45.642;13.756;2023-04-15T15:10:49;21.10;52.10
15609;DHT22;64278;45.642;13.756;2023-04-15T15:13:16;21.10;52.20
15609;DHT22;64278;45.642;13.756;2023-04-15T15:15:41;21.10;52.20
15609;DHT22;64278;45.642;13.756;2023-04-15T15:18:07;21.00;52.10
15609;DHT22;64278;45.642;13.756;2023-04-15T15:20:33;21.10;52.20
15609;DHT22;64278;45.642;13.756;2023-04-15T15:23:00;21.10;52.20